sensor_id;sensor_type;location;lat;lon;timestamp;pressure;altitude;pressure_sealevel;temperature;humidity
51297;BME280;37380;45.186;9.792;2023-04-25T00:00:41;99926.25;;;11.07;100.00
51297;BME280;37380;45.186;9.792;2023-04-25T00:03:09;99941.94;;;11.06;100.00
51297;BME280;37380;45.186;9.792;2023-04-25T00:05:37;99942.75;;;11.05;100.00
51297;BME280;37380;45.186;9.792;2023-04-25T00:08:08;100000.22;;;11.44;100.00
51297;BME280;37380;45.186;9.792;2023-04-25T00:10:39;99899.31;;;10.68;100.00
51297;BME280;37380;45.186;9.792;2023-04-25T00:13:09;99999.91;;;11.29;100.00
51297;BME280;37380;45.186;9.792;2023-04-25T00:15:39;100237.16;;;12.56;100.00
51297;BME280;37380;45.186;9.792;2023-04-25T00:18:11;99964.06;;;11.23;100.00
51297;BME280;37380;45.186;9.792;2023-04-25T00:20:44;99968.31;;;11.20;100.00
51297;BME280;37380;45.186;9.792;2023-04-25T00:23:17;99968.13;;;11.09;100.00
51297;BME280;37380;45.186;9.792;2023-04-25T00:25:47;99933.00;;;10.96;100.00
51297;BME280;37380;45.186;9.792;2023-04-25T00:28:29;99986.56;;;11.17;100.00
51297;BME280;37380;45.186;9.792;2023-04-25T00:31:23;100066.69;;;11.54;100.00
51297;BME280;37380;45.186;9.792;2023-04-25T00:33:51;99937.28;;;10.93;100.00
51297;BME280;37380;45.186;9.792;2023-04-25T00:36:26;99992.66;;;11.16;100.00
51297;BME280;37380;45.186;9.792;2023-04-25T00:39:05;100106.94;;;12.03;100.00
51297;BME280;37380;45.186;9.792;2023-04-25T00:42:06;99927.97;;;10.64;100.00
51297;BME280;37380;45.186;9.792;2023-04-25T00:45:05;99940.63;;;10.85;100.00
51297;BME280;37380;45.186;9.792;2023-04-25T00:47:33;99943.19;;;10.84;100.00
51297;BME280;37380;45.186;9.792;2023-04-25T00:50:02;99928.25;;;10.77;100.00
51297;BME280;37380;45.186;9.792;2023-04-25T00:52:32;100190.09;;;12.15;100.00
51297;BME280;37380;45.186;9.792;2023-04-25T00:55:00;100024.47;;;11.37;100.00
51297;BME280;37380;45.186;9.792;2023-04-25T00:57:29;100201.63;;;12.24;100.00
51297;BME280;37380;45.186;9.792;2023-04-25T00:59:58;99924.47;;;10.64;100.00
51297;BME280;37380;45.186;9.792;2023-04-25T01:02:33;99934.66;;;10.52;100.00
51297;BME280;37380;45.186;9.792;2023-04-25T01:05:03;99876.19;;;10.45;100.00
51297;BME280;37380;45.186;9.792;2023-04-25T01:07:35;99947.16;;;10.65;100.00
51297;BME280;37380;45.186;9.792;2023-04-25T01:10:04;100024.91;;;11.16;100.00
51297;BME280;37380;45.186;9.792;2023-04-25T01:12:34;99931.47;;;10.65;100.00
51297;BME280;37380;45.186;9.792;2023-04-25T01:15:08;99902.38;;;10.48;100.00
51297;BME280;37380;45.186;9.792;2023-04-25T01:17:40;100008.28;;;11.13;100.00
51297;BME280;37380;45.186;9.792;2023-04-25T01:20:14;99971.31;;;10.94;100.00
51297;BME280;37380;45.186;9.792;2023-04-25T01:22:48;99999.75;;;11.21;100.00
51297;BME280;37380;45.186;9.792;2023-04-25T01:25:18;100112.81;;;11.91;100.00
51297;BME280;37380;45.186;9.792;2023-04-25T01:27:57;99926.25;;;10.65;100.00
51297;BME280;37380;45.186;9.792;2023-04-25T01:30:46;100215.03;;;12.40;100.00
51297;BME280;37380;45.186;9.792;2023-04-25T01:33:17;99919.44;;;10.72;100.00
51297;BME280;37380;45.186;9.792;2023-04-25T01:35:49;99949.97;;;10.76;100.00
51297;BME280;37380;45.186;9.792;2023-04-25T01:38:26;99905.06;;;10.53;100.00
51297;BME280;37380;45.186;9.792;2023-04-25T01:41:21;99948.28;;;10.76;100.00
51297;BME280;37380;45.186;9.792;2023-04-25T01:43:55;99934.59;;;10.90;100.00
51297;BME280;37380;45.186;9.792;2023-04-25T01:46:23;99891.44;;;10.66;100.00
51297;BME280;37380;45.186;9.792;2023-04-25T01:48:51;100202.81;;;12.40;100.00
51297;BME280;37380;45.186;9.792;2023-04-25T01:51:19;100084.34;;;11.64;100.00
51297;BME280;37380;45.186;9.792;2023-04-25T01:53:52;99902.38;;;10.48;100.00
51297;BME280;37380;45.186;9.792;2023-04-25T01:56:20;100206.16;;;12.33;100.00
51297;BME280;37380;45.186;9.792;2023-04-25T01:58:49;99902.16;;;10.39;100.00
51297;BME280;37380;45.186;9.792;2023-04-25T02:01:32;99923.88;;;10.38;100.00
51297;BME280;37380;45.186;9.792;2023-04-25T02:04:15;100081.59;;;11.58;100.00
51297;BME280;37380;45.186;9.792;2023-04-25T02:06:51;100078.44;;;11.32;100.00
51297;BME280;37380;45.186;9.792;2023-04-25T02:10:00;99999.88;;;10.86;100.00
51297;BME280;37380;45.186;9.792;2023-04-25T02:13:14;100204.94;;;12.14;100.00
51297;BME280;37380;45.186;9.792;2023-04-25T02:15:54;99958.41;;;10.62;100.00
51297;BME280;37380;45.186;9.792;2023-04-25T02:18:22;99941.16;;;10.31;100.00
51297;BME280;37380;45.186;9.792;2023-04-25T02:20:50;99914.13;;;10.29;100.00
51297;BME280;37380;45.186;9.792;2023-04-25T02:23:20;100028.16;;;11.04;100.00
51297;BME280;37380;45.186;9.792;2023-04-25T02:25:51;99931.22;;;10.54;100.00
51297;BME280;37380;45.186;9.792;2023-04-25T02:28:27;99929.28;;;10.46;100.00
51297;BME280;37380;45.186;9.792;2023-04-25T02:31:21;99929.19;;;10.41;100.00
51297;BME280;37380;45.186;9.792;2023-04-25T02:33:54;99945.97;;;10.52;100.00
51297;BME280;37380;45.186;9.792;2023-04-25T02:36:28;99901.88;;;10.27;100.00
51297;BME280;37380;45.186;9.792;2023-04-25T02:39:07;99918.72;;;10.41;100.00
51297;BME280;37380;45.186;9.792;2023-04-25T02:42:01;99916.56;;;10.23;100.00
51297;BME280;37380;45.186;9.792;2023-04-25T02:44:30;100019.38;;;11.02;100.00
51297;BME280;37380;45.186;9.792;2023-04-25T02:46:58;100115.63;;;11.58;100.00
51297;BME280;37380;45.186;9.792;2023-04-25T02:49:26;99914.22;;;10.34;100.00
51297;BME280;37380;45.186;9.792;2023-04-25T02:51:56;99887.88;;;10.25;100.00
51297;BME280;37380;45.186;9.792;2023-04-25T02:54:25;99984.75;;;10.72;100.00
51297;BME280;37380;45.186;9.792;2023-04-25T02:56:55;100201.78;;;11.88;100.00
51297;BME280;37380;45.186;9.792;2023-04-25T02:59:29;100086.28;;;11.32;100.00
51297;BME280;37380;45.186;9.792;2023-04-25T03:02:10;100061.44;;;11.13;100.00
51297;BME280;37380;45.186;9.792;2023-04-25T03:05:07;99902.41;;;10.13;100.00
51297;BME280;37380;45.186;9.792;2023-04-25T03:07:38;100177.28;;;11.86;100.00
51297;BME280;37380;45.186;9.792;2023-04-25T03:10:10;100045.97;;;11.22;100.00
51297;BME280;37380;45.186;9.792;2023-04-25T03:12:38;99876.84;;;10.00;100.00
51297;BME280;37380;45.186;9.792;2023-04-25T03:15:06;99874.81;;;9.87;100.00
51297;BME280;37380;45.186;9.792;2023-04-25T03:17:35;100012.59;;;10.71;100.00
51297;BME280;37380;45.186;9.792;2023-04-25T03:20:05;100172.84;;;11.84;100.00
51297;BME280;37380;45.186;9.792;2023-04-25T03:22:36;99905.41;;;10.29;100.00
51297;BME280;37380;45.186;9.792;2023-04-25T03:25:08;100000.63;;;10.81;100.00
51297;BME280;37380;45.186;9.792;2023-04-25T03:27:45;100193.97;;;11.91;100.00
51297;BME280;37380;45.186;9.792;2023-04-25T03:30:49;99863.66;;;9.92;100.00
51297;BME280;37380;45.186;9.792;2023-04-25T03:33:46;99916.56;;;10.23;100.00
51297;BME280;37380;45.186;9.792;2023-04-25T03:36:26;99855.91;;;9.61;100.00
51297;BME280;37380;45.186;9.792;2023-04-25T03:39:05;99914.97;;;9.92;100.00
51297;BME280;37380;45.186;9.792;2023-04-25T03:41:56;100034.72;;;10.49;100.00
51297;BME280;37380;45.186;9.792;2023-04-25T03:44:28;99907.53;;;9.74;100.00
51297;BME280;37380;45.186;9.792;2023-04-25T03:47:01;99932.13;;;9.49;100.00
51297;BME280;37380;45.186;9.792;2023-04-25T03:49:43;100027.63;;;10.10;100.00
51297;BME280;37380;45.186;9.792;2023-04-25T03:52:12;99997.53;;;9.90;100.00
51297;BME280;37380;45.186;9.792;2023-04-25T03:54:45;99932.69;;;9.37;100.00
51297;BME280;37380;45.186;9.792;2023-04-25T03:57:17;99920.91;;;9.20;100.00
51297;BME280;37380;45.186;9.792;2023-04-25T03:59:49;99910.94;;;9.05;100.00
51297;BME280;37380;45.186;9.792;2023-04-25T04:02:19;99931.56;;;8.97;100.00
51297;BME280;37380;45.186;9.792;2023-04-25T04:04:53;99918.88;;;9.10;100.00
51297;BME280;37380;45.186;9.792;2023-04-25T04:07:24;99926.91;;;8.87;100.00
51297;BME280;37380;45.186;9.792;2023-04-25T04:09:59;99970.03;;;9.06;100.00
51297;BME280;37380;45.186;9.792;2023-04-25T04:12:35;99951.69;;;9.03;100.00
51297;BME280;37380;45.186;9.792;2023-04-25T04:15:04;100151.69;;;10.28;100.00
51297;BME280;37380;45.186;9.792;2023-04-25T04:17:34;99909.41;;;8.81;100.00
51297;BME280;37380;45.186;9.792;2023-04-25T04:20:03;99947.94;;;8.93;100.00
51297;BME280;37380;45.186;9.792;2023-04-25T04:22:36;100216.72;;;10.50;100.00
51297;BME280;37380;45.186;9.792;2023-04-25T04:25:09;99920.44;;;9.04;100.00
51297;BME280;37380;45.186;9.792;2023-04-25T04:28:16;100225.75;;;10.96;100.00
51297;BME280;37380;45.186;9.792;2023-04-25T04:31:30;99988.88;;;9.27;100.00
51297;BME280;37380;45.186;9.792;2023-04-25T04:34:02;99970.53;;;9.24;100.00
51297;BME280;37380;45.186;9.792;2023-04-25T04:36:33;100074.38;;;9.69;100.00
51297;BME280;37380;45.186;9.792;2023-04-25T04:39:10;100103.56;;;9.88;100.00
51297;BME280;37380;45.186;9.792;2023-04-25T04:42:24;99967.47;;;9.07;100.00
51297;BME280;37380;45.186;9.792;2023-04-25T04:45:26;100072.66;;;9.40;100.00
51297;BME280;37380;45.186;9.792;2023-04-25T04:48:07;100088.84;;;9.58;100.00
51297;BME280;37380;45.186;9.792;2023-04-25T04:50:54;99971.69;;;9.04;100.00
51297;BME280;37380;45.186;9.792;2023-04-25T04:53:52;100152.97;;;10.43;100.00
51297;BME280;37380;45.186;9.792;2023-04-25T04:56:42;100185.53;;;11.26;100.00
51297;BME280;37380;45.186;9.792;2023-04-25T04:59:27;100000.75;;;10.48;100.00
51297;BME280;37380;45.186;9.792;2023-04-25T05:02:11;99995.38;;;11.20;100.00
51297;BME280;37380;45.186;9.792;2023-04-25T05:05:32;99995.09;;;11.50;100.00
51297;BME280;37380;45.186;9.792;2023-04-25T05:08:38;99987.69;;;11.75;100.00
51297;BME280;37380;45.186;9.792;2023-04-25T05:11:54;100208.63;;;12.71;100.00
51297;BME280;37380;45.186;9.792;2023-04-25T05:14:45;100071.59;;;11.81;100.00
51297;BME280;37380;45.186;9.792;2023-04-25T05:17:46;99980.75;;;11.30;100.00
51297;BME280;37380;45.186;9.792;2023-04-25T05:21:13;100092.69;;;12.34;100.00
51297;BME280;37380;45.186;9.792;2023-04-25T05:24:04;100001.13;;;11.90;100.00
51297;BME280;37380;45.186;9.792;2023-04-25T05:26:52;99952.31;;;12.49;100.00
51297;BME280;37380;45.186;9.792;2023-04-25T05:29:27;100022.50;;;13.32;100.00
51297;BME280;37380;45.186;9.792;2023-04-25T05:32:31;100032.03;;;13.97;100.00
51297;BME280;37380;45.186;9.792;2023-04-25T05:35:04;100086.31;;;13.96;100.00
51297;BME280;37380;45.186;9.792;2023-04-25T05:37:48;100136.13;;;13.26;100.00
51297;BME280;37380;45.186;9.792;2023-04-25T05:41:05;100119.91;;;13.53;100.00
51297;BME280;37380;45.186;9.792;2023-04-25T05:43:59;100001.50;;;12.66;100.00
51297;BME280;37380;45.186;9.792;2023-04-25T05:46:39;100017.03;;;12.54;100.00
51297;BME280;37380;45.186;9.792;2023-04-25T05:49:46;100100.31;;;13.27;100.00
51297;BME280;37380;45.186;9.792;2023-04-25T05:52:32;100005.59;;;12.51;100.00
51297;BME280;37380;45.186;9.792;2023-04-25T05:55:20;100001.41;;;12.60;100.00
51297;BME280;37380;45.186;9.792;2023-04-25T05:57:53;100033.41;;;12.99;100.00
51297;BME280;37380;45.186;9.792;2023-04-25T06:00:27;100011.03;;;13.24;100.00
51297;BME280;37380;45.186;9.792;2023-04-25T06:03:29;100267.69;;;14.83;100.00
51297;BME280;37380;45.186;9.792;2023-04-25T06:06:38;100150.53;;;14.26;100.00
51297;BME280;37380;45.186;9.792;2023-04-25T06:09:43;100005.44;;;13.65;100.00
51297;BME280;37380;45.186;9.792;2023-04-25T06:12:17;100260.44;;;15.55;100.00
51297;BME280;37380;45.186;9.792;2023-04-25T06:14:54;100162.84;;;15.25;100.00
51297;BME280;37380;45.186;9.792;2023-04-25T06:17:22;100033.31;;;14.45;100.00
51297;BME280;37380;45.186;9.792;2023-04-25T06:20:07;100286.34;;;16.15;100.00
51297;BME280;37380;45.186;9.792;2023-04-25T06:22:42;100171.91;;;15.70;100.00
51297;BME280;37380;45.186;9.792;2023-04-25T06:25:14;100274.97;;;16.29;100.00
51297;BME280;37380;45.186;9.792;2023-04-25T06:27:58;100267.88;;;16.16;100.00
51297;BME280;37380;45.186;9.792;2023-04-25T06:31:01;100035.94;;;14.45;100.00
51297;BME280;37380;45.186;9.792;2023-04-25T06:34:06;100024.59;;;14.46;100.00
51297;BME280;37380;45.186;9.792;2023-04-25T06:36:40;100038.75;;;14.60;100.00
51297;BME280;37380;45.186;9.792;2023-04-25T06:39:11;100117.44;;;15.67;100.00
51297;BME280;37380;45.186;9.792;2023-04-25T06:41:42;100005.00;;;15.40;100.00
51297;BME280;37380;45.186;9.792;2023-04-25T06:44:31;100033.78;;;15.08;100.00
51297;BME280;37380;45.186;9.792;2023-04-25T06:47:05;100272.44;;;16.56;100.00
51297;BME280;37380;45.186;9.792;2023-04-25T06:49:41;100274.19;;;16.53;100.00
51297;BME280;37380;45.186;9.792;2023-04-25T06:52:14;100019.03;;;15.44;100.00
51297;BME280;37380;45.186;9.792;2023-04-25T06:54:48;100112.41;;;16.36;100.00
51297;BME280;37380;45.186;9.792;2023-04-25T06:57:40;100015.69;;;15.91;100.00
51297;BME280;37380;45.186;9.792;2023-04-25T07:00:57;100024.50;;;15.99;100.00
51297;BME280;37380;45.186;9.792;2023-04-25T07:03:53;100138.81;;;16.51;100.00
51297;BME280;37380;45.186;9.792;2023-04-25T07:06:25;100272.59;;;17.69;100.00
51297;BME280;37380;45.186;9.792;2023-04-25T07:09:00;100021.91;;;16.20;99.88
51297;BME280;37380;45.186;9.792;2023-04-25T07:11:29;100007.78;;;15.81;99.72
51297;BME280;37380;45.186;9.792;2023-04-25T07:13:56;100116.72;;;15.94;100.00
51297;BME280;37380;45.186;9.792;2023-04-25T07:16:36;100166.81;;;16.14;100.00
51297;BME280;37380;45.186;9.792;2023-04-25T07:19:25;100033.31;;;16.64;98.63
51297;BME280;37380;45.186;9.792;2023-04-25T07:22:28;100000.53;;;17.55;92.35
51297;BME280;37380;45.186;9.792;2023-04-25T07:25:26;100263.47;;;19.88;85.01
51297;BME280;37380;45.186;9.792;2023-04-25T07:28:16;100027.44;;;18.25;85.25
51297;BME280;37380;45.186;9.792;2023-04-25T07:31:20;100039.09;;;17.92;87.27
51297;BME280;37380;45.186;9.792;2023-04-25T07:33:54;100171.63;;;18.89;84.43
51297;BME280;37380;45.186;9.792;2023-04-25T07:36:22;100045.84;;;19.33;80.52
51297;BME280;37380;45.186;9.792;2023-04-25T07:38:58;100134.91;;;20.19;78.76
51297;BME280;37380;45.186;9.792;2023-04-25T07:41:37;100079.41;;;20.05;77.26
51297;BME280;37380;45.186;9.792;2023-04-25T07:44:25;100068.00;;;20.01;75.95
51297;BME280;37380;45.186;9.792;2023-04-25T07:47:39;100060.47;;;19.66;75.91
51297;BME280;37380;45.186;9.792;2023-04-25T07:50:09;100207.66;;;19.99;78.83
51297;BME280;37380;45.186;9.792;2023-04-25T07:52:50;100069.66;;;19.37;74.27
51297;BME280;37380;45.186;9.792;2023-04-25T07:55:26;100073.84;;;18.64;79.59
51297;BME280;37380;45.186;9.792;2023-04-25T07:58:17;100052.53;;;19.67;69.96
51297;BME280;37380;45.186;9.792;2023-04-25T08:01:00;100121.78;;;19.31;69.96
51297;BME280;37380;45.186;9.792;2023-04-25T08:03:54;100047.22;;;18.89;70.33
51297;BME280;37380;45.186;9.792;2023-04-25T08:06:35;100079.91;;;18.83;74.67
51297;BME280;37380;45.186;9.792;2023-04-25T08:09:21;100302.41;;;18.37;79.09
51297;BME280;37380;45.186;9.792;2023-04-25T08:11:54;100064.97;;;16.64;82.47
51297;BME280;37380;45.186;9.792;2023-04-25T08:14:34;100298.13;;;18.04;81.78
51297;BME280;37380;45.186;9.792;2023-04-25T08:17:32;100291.72;;;18.66;81.31
51297;BME280;37380;45.186;9.792;2023-04-25T08:20:13;100082.50;;;17.31;79.01
51297;BME280;37380;45.186;9.792;2023-04-25T08:22:51;100206.56;;;17.63;81.99
51297;BME280;37380;45.186;9.792;2023-04-25T08:25:46;100156.25;;;18.00;81.26
51297;BME280;37380;45.186;9.792;2023-04-25T08:28:55;100328.25;;;19.54;78.52
51297;BME280;37380;45.186;9.792;2023-04-25T08:32:01;100070.44;;;18.51;72.07
51297;BME280;37380;45.186;9.792;2023-04-25T08:34:34;100328.50;;;19.18;74.40
51297;BME280;37380;45.186;9.792;2023-04-25T08:37:14;100221.13;;;18.71;74.54
51297;BME280;37380;45.186;9.792;2023-04-25T08:40:05;100067.53;;;16.02;83.30
51297;BME280;37380;45.186;9.792;2023-04-25T08:43:07;100351.88;;;17.91;82.88
51297;BME280;37380;45.186;9.792;2023-04-25T08:46:04;100057.03;;;16.22;85.31
51297;BME280;37380;45.186;9.792;2023-04-25T08:48:53;100334.91;;;18.67;81.58
51297;BME280;37380;45.186;9.792;2023-04-25T08:51:31;100177.34;;;18.18;77.92
51297;BME280;37380;45.186;9.792;2023-04-25T08:54:11;100092.53;;;18.41;73.83
51297;BME280;37380;45.186;9.792;2023-04-25T08:57:05;100326.25;;;19.85;71.53
51297;BME280;37380;45.186;9.792;2023-04-25T08:59:49;100083.06;;;18.11;76.50
51297;BME280;37380;45.186;9.792;2023-04-25T09:02:54;100078.84;;;17.72;74.19
51297;BME280;37380;45.186;9.792;2023-04-25T09:05:34;100080.78;;;16.51;82.64
51297;BME280;37380;45.186;9.792;2023-04-25T09:08:25;100090.41;;;17.25;78.04
51297;BME280;37380;45.186;9.792;2023-04-25T09:11:19;100116.69;;;17.86;73.36
51297;BME280;37380;45.186;9.792;2023-04-25T09:14:13;100337.97;;;19.52;70.31
51297;BME280;37380;45.186;9.792;2023-04-25T09:17:10;100230.09;;;18.43;78.64
51297;BME280;37380;45.186;9.792;2023-04-25T09:19:42;100089.56;;;16.29;79.59
51297;BME280;37380;45.186;9.792;2023-04-25T09:22:20;100081.66;;;17.01;80.56
51297;BME280;37380;45.186;9.792;2023-04-25T09:24:50;100333.81;;;19.18;74.89
51297;BME280;37380;45.186;9.792;2023-04-25T09:27:31;100074.25;;;18.10;73.93
51297;BME280;37380;45.186;9.792;2023-04-25T09:30:41;100098.78;;;18.34;73.22
51297;BME280;37380;45.186;9.792;2023-04-25T09:34:01;100233.94;;;19.30;73.80
51297;BME280;37380;45.186;9.792;2023-04-25T09:36:44;100127.38;;;19.03;65.33
51297;BME280;37380;45.186;9.792;2023-04-25T09:39:57;100115.97;;;19.81;63.96
51297;BME280;37380;45.186;9.792;2023-04-25T09:43:02;100279.53;;;20.53;63.47
51297;BME280;37380;45.186;9.792;2023-04-25T09:46:13;100108.22;;;19.61;64.23
51297;BME280;37380;45.186;9.792;2023-04-25T09:49:08;100115.13;;;18.91;67.54
51297;BME280;37380;45.186;9.792;2023-04-25T09:51:57;100147.81;;;19.77;61.41
51297;BME280;37380;45.186;9.792;2023-04-25T09:54:51;100111.06;;;19.46;59.05
51297;BME280;37380;45.186;9.792;2023-04-25T09:57:40;100105.94;;;20.03;61.11
51297;BME280;37380;45.186;9.792;2023-04-25T10:00:13;100114.03;;;20.56;58.57
51297;BME280;37380;45.186;9.792;2023-04-25T10:02:52;100247.75;;;20.44;63.33
51297;BME280;37380;45.186;9.792;2023-04-25T10:05:43;100251.06;;;20.66;61.21
51297;BME280;37380;45.186;9.792;2023-04-25T10:08:16;100235.91;;;20.74;59.26
51297;BME280;37380;45.186;9.792;2023-04-25T10:11:00;100335.91;;;21.91;56.62
51297;BME280;37380;45.186;9.792;2023-04-25T10:13:48;100100.47;;;20.76;55.79
51297;BME280;37380;45.186;9.792;2023-04-25T10:16:24;100184.06;;;21.05;55.86
51297;BME280;37380;45.186;9.792;2023-04-25T10:18:53;100050.09;;;18.58;60.77
51297;BME280;37380;45.186;9.792;2023-04-25T10:21:27;100254.06;;;19.52;65.46
51297;BME280;37380;45.186;9.792;2023-04-25T10:24:04;100345.19;;;19.28;68.18
51297;BME280;37380;45.186;9.792;2023-04-25T10:26:45;100097.16;;;18.08;65.50
51297;BME280;37380;45.186;9.792;2023-04-25T10:30:08;100326.28;;;18.08;74.07
51297;BME280;37380;45.186;9.792;2023-04-25T10:33:16;100228.50;;;17.99;75.54
51297;BME280;37380;45.186;9.792;2023-04-25T10:35:52;100075.28;;;17.71;70.73
51297;BME280;37380;45.186;9.792;2023-04-25T10:39:08;100050.56;;;17.94;78.09
51297;BME280;37380;45.186;9.792;2023-04-25T10:42:05;100319.09;;;20.73;67.65
51297;BME280;37380;45.186;9.792;2023-04-25T10:45:06;100024.75;;;19.25;64.92
51297;BME280;37380;45.186;9.792;2023-04-25T10:47:55;100322.69;;;20.69;67.53
51297;BME280;37380;45.186;9.792;2023-04-25T10:50:37;100214.13;;;20.48;64.47
51297;BME280;37380;45.186;9.792;2023-04-25T10:53:15;100180.66;;;18.51;70.61
51297;BME280;37380;45.186;9.792;2023-04-25T10:55:49;100241.66;;;20.38;70.39
51297;BME280;37380;45.186;9.792;2023-04-25T10:58:22;100161.00;;;20.54;61.46
51297;BME280;37380;45.186;9.792;2023-04-25T11:00:50;100246.19;;;20.97;61.57
51297;BME280;37380;45.186;9.792;2023-04-25T11:03:23;100329.06;;;21.21;62.04
51297;BME280;37380;45.186;9.792;2023-04-25T11:05:52;100231.75;;;20.50;65.82
51297;BME280;37380;45.186;9.792;2023-04-25T11:08:50;100235.59;;;20.28;65.48
51297;BME280;37380;45.186;9.792;2023-04-25T11:11:53;100276.66;;;18.85;78.79
51297;BME280;37380;45.186;9.792;2023-04-25T11:14:27;100323.72;;;19.73;72.71
51297;BME280;37380;45.186;9.792;2023-04-25T11:17:24;100312.88;;;18.66;77.83
51297;BME280;37380;45.186;9.792;2023-04-25T11:19:54;100238.25;;;19.40;71.84
51297;BME280;37380;45.186;9.792;2023-04-25T11:22:26;100233.84;;;20.27;68.00
51297;BME280;37380;45.186;9.792;2023-04-25T11:24:54;100120.53;;;19.68;67.93
51297;BME280;37380;45.186;9.792;2023-04-25T11:27:28;100084.34;;;20.31;64.64
51297;BME280;37380;45.186;9.792;2023-04-25T11:30:29;100186.38;;;20.70;64.89
51297;BME280;37380;45.186;9.792;2023-04-25T11:33:02;100193.97;;;21.49;60.74
51297;BME280;37380;45.186;9.792;2023-04-25T11:35:36;100253.72;;;20.66;67.32
51297;BME280;37380;45.186;9.792;2023-04-25T11:38:30;100153.06;;;21.07;66.29
51297;BME280;37380;45.186;9.792;2023-04-25T11:41:00;100229.81;;;21.75;61.29
51297;BME280;37380;45.186;9.792;2023-04-25T11:43:35;100141.34;;;20.66;62.06
51297;BME280;37380;45.186;9.792;2023-04-25T11:46:36;100239.25;;;20.87;62.75
51297;BME280;37380;45.186;9.792;2023-04-25T11:49:32;100212.78;;;20.15;67.94
51297;BME280;37380;45.186;9.792;2023-04-25T11:51:59;100252.72;;;21.31;61.55
51297;BME280;37380;45.186;9.792;2023-04-25T11:54:26;100086.84;;;19.78;64.51
51297;BME280;37380;45.186;9.792;2023-04-25T11:56:54;100025.16;;;18.87;65.82
51297;BME280;37380;45.186;9.792;2023-04-25T11:59:36;100126.44;;;17.50;73.71
51297;BME280;37380;45.186;9.792;2023-04-25T12:02:03;100001.25;;;17.90;68.54
51297;BME280;37380;45.186;9.792;2023-04-25T12:04:33;100152.84;;;19.18;68.43
51297;BME280;37380;45.186;9.792;2023-04-25T12:07:01;100166.94;;;19.20;67.72
51297;BME280;37380;45.186;9.792;2023-04-25T12:09:33;100053.94;;;19.19;66.90
51297;BME280;37380;45.186;9.792;2023-04-25T12:12:09;100108.47;;;19.37;67.79
51297;BME280;37380;45.186;9.792;2023-04-25T12:16:11;100035.88;;;18.70;66.16
51297;BME280;37380;45.186;9.792;2023-04-25T12:18:43;100192.78;;;19.87;68.17
51297;BME280;37380;45.186;9.792;2023-04-25T12:21:10;100148.22;;;20.16;64.96
51297;BME280;37380;45.186;9.792;2023-04-25T12:27:02;100105.28;;;19.86;64.00
51297;BME280;37380;45.186;9.792;2023-04-25T12:29:36;100194.06;;;19.45;69.37
51297;BME280;37380;45.186;9.792;2023-04-25T12:32:40;99999.19;;;18.31;69.76
51297;BME280;37380;45.186;9.792;2023-04-25T12:35:34;100143.41;;;18.85;71.54
51297;BME280;37380;45.186;9.792;2023-04-25T12:38:01;100031.03;;;18.16;71.45
51297;BME280;37380;45.186;9.792;2023-04-25T12:40:28;100091.69;;;18.38;70.10
51297;BME280;37380;45.186;9.792;2023-04-25T12:42:56;100237.84;;;19.86;69.94
51297;BME280;37380;45.186;9.792;2023-04-25T12:45:24;100101.13;;;18.75;72.53
51297;BME280;37380;45.186;9.792;2023-04-25T12:47:51;100166.13;;;19.10;71.46
51297;BME280;37380;45.186;9.792;2023-04-25T12:50:18;100213.53;;;19.39;71.24
51297;BME280;37380;45.186;9.792;2023-04-25T12:52:45;100250.41;;;19.68;68.76
51297;BME280;37380;45.186;9.792;2023-04-25T12:55:12;100208.75;;;19.81;69.61
51297;BME280;37380;45.186;9.792;2023-04-25T12:57:40;100196.38;;;19.82;68.56
51297;BME280;37380;45.186;9.792;2023-04-25T13:00:13;100140.75;;;19.79;68.75
51297;BME280;37380;45.186;9.792;2023-04-25T13:03:14;100134.56;;;20.43;66.17
51297;BME280;37380;45.186;9.792;2023-04-25T13:06:17;100210.34;;;21.74;61.97
51297;BME280;37380;45.186;9.792;2023-04-25T13:09:18;100205.88;;;22.21;56.90
51297;BME280;37380;45.186;9.792;2023-04-25T13:11:47;100229.69;;;22.29;54.85
51297;BME280;37380;45.186;9.792;2023-04-25T13:14:14;100206.09;;;22.09;54.94
51297;BME280;37380;45.186;9.792;2023-04-25T13:16:42;100222.16;;;22.48;54.24
51297;BME280;37380;45.186;9.792;2023-04-25T13:19:10;100296.16;;;22.30;56.84
51297;BME280;37380;45.186;9.792;2023-04-25T13:21:38;100201.16;;;21.44;55.81
51297;BME280;37380;45.186;9.792;2023-04-25T13:24:11;100262.84;;;21.63;58.97
51297;BME280;37380;45.186;9.792;2023-04-25T13:27:15;100145.63;;;20.09;61.36
51297;BME280;37380;45.186;9.792;2023-04-25T13:30:19;100052.28;;;20.45;56.63
51297;BME280;37380;45.186;9.792;2023-04-25T13:33:14;100189.09;;;19.98;59.05
51297;BME280;37380;45.186;9.792;2023-04-25T13:35:41;100305.81;;;18.74;69.06
51297;BME280;37380;45.186;9.792;2023-04-25T13:38:09;100189.44;;;18.62;68.39
51297;BME280;37380;45.186;9.792;2023-04-25T13:40:36;100226.81;;;19.38;66.42
51297;BME280;37380;45.186;9.792;2023-04-25T13:43:03;100304.06;;;19.94;63.93
51297;BME280;37380;45.186;9.792;2023-04-25T13:45:30;100218.78;;;19.47;64.00
51297;BME280;37380;45.186;9.792;2023-04-25T13:47:59;100205.63;;;19.38;66.25
51297;BME280;37380;45.186;9.792;2023-04-25T13:50:27;100270.06;;;20.31;65.63
51297;BME280;37380;45.186;9.792;2023-04-25T13:52:54;100144.03;;;19.99;63.96
51297;BME280;37380;45.186;9.792;2023-04-25T13:55:22;100249.22;;;18.95;64.91
51297;BME280;37380;45.186;9.792;2023-04-25T13:57:49;100194.00;;;18.26;70.00
51297;BME280;37380;45.186;9.792;2023-04-25T14:00:22;100212.50;;;18.29;65.72
51297;BME280;37380;45.186;9.792;2023-04-25T14:03:25;100234.69;;;17.99;80.23
51297;BME280;37380;45.186;9.792;2023-04-25T14:06:27;100247.06;;;16.91;86.91